Terminal Aerodrome Forecast
Issued by NWS Cleveland, OH

Home | Current Version | Previous Version | Text Only | Print | Product List | Glossary Off
Versions: 1 2 3 4 5 6 7 8 9 10 11 12 13 14 15 16 17 18 19 20 21 22

000
FTUS41 KCLE 271500 AAA
TAFCAK
TAF AMD
KCAK 271554Z 2716/2812 35005KT P6SM SCT020
      TEMPO 2716/2718 BKN020
     FM271900 35008KT P6SM SCT030
     FM280000 02005KT P6SM SCT250
     FM281100 VRB03KT 5SM BR SCT250=

USA.gov is the U.S. government's official web portal to all federal, state and local government web resources and services.